sensor_id;sensor_type;location;lat;lon;timestamp;temperature;humidity
70807;DHT22;58882;52.170;5.386;2023-05-10T00:01:59;18.60;64.30
70807;DHT22;58882;52.170;5.386;2023-05-10T00:04:39;18.60;64.30
70807;DHT22;58882;52.170;5.386;2023-05-10T00:07:25;18.60;64.30
70807;DHT22;58882;52.170;5.386;2023-05-10T00:10:06;18.60;64.30
70807;DHT22;58882;52.170;5.386;2023-05-10T00:12:53;18.60;64.20
70807;DHT22;58882;52.170;5.386;2023-05-10T00:15:33;18.60;64.10
70807;DHT22;58882;52.170;5.386;2023-05-10T00:18:20;18.60;64.30
70807;DHT22;58882;52.170;5.386;2023-05-10T00:21:00;18.60;64.30
70807;DHT22;58882;52.170;5.386;2023-05-10T00:23:54;18.60;64.30
70807;DHT22;58882;52.170;5.386;2023-05-10T00:26:35;18.60;64.40
70807;DHT22;58882;52.170;5.386;2023-05-10T00:29:28;18.60;64.50
70807;DHT22;58882;52.170;5.386;2023-05-10T00:32:02;18.60;64.40
70807;DHT22;58882;52.170;5.386;2023-05-10T00:34:56;18.60;64.30
70807;DHT22;58882;52.170;5.386;2023-05-10T00:37:36;18.60;64.50
70807;DHT22;58882;52.170;5.386;2023-05-10T00:40:23;18.60;64.40
70807;DHT22;58882;52.170;5.386;2023-05-10T00:43:06;18.60;64.30
70807;DHT22;58882;52.170;5.386;2023-05-10T00:45:59;18.60;64.40
70807;DHT22;58882;52.170;5.386;2023-05-10T00:48:40;18.60;64.30
70807;DHT22;58882;52.170;5.386;2023-05-10T00:51:27;18.50;64.40
70807;DHT22;58882;52.170;5.386;2023-05-10T00:54:00;18.50;64.50
70807;DHT22;58882;52.170;5.386;2023-05-10T00:56:54;18.50;64.60
70807;DHT22;58882;52.170;5.386;2023-05-10T00:59:34;18.50;64.70
70807;DHT22;58882;52.170;5.386;2023-05-10T01:02:21;18.50;64.70
70807;DHT22;58882;52.170;5.386;2023-05-10T01:05:02;18.50;64.70
70807;DHT22;58882;52.170;5.386;2023-05-10T01:07:56;18.50;64.50
70807;DHT22;58882;52.170;5.386;2023-05-10T01:10:36;18.40;64.40
70807;DHT22;58882;52.170;5.386;2023-05-10T01:13:33;18.40;64.50
70807;DHT22;58882;52.170;5.386;2023-05-10T01:16:14;18.40;64.70
70807;DHT22;58882;52.170;5.386;2023-05-10T01:19:01;18.40;65.70
70807;DHT22;58882;52.170;5.386;2023-05-10T01:21:53;18.40;64.90
70807;DHT22;58882;52.170;5.386;2023-05-10T01:30:56;18.40;64.80
70807;DHT22;58882;52.170;5.386;2023-05-10T01:33:56;18.40;64.90
70807;DHT22;58882;52.170;5.386;2023-05-10T01:39:46;18.30;64.90
70807;DHT22;58882;52.170;5.386;2023-05-10T01:42:42;18.30;65.10
70807;DHT22;58882;52.170;5.386;2023-05-10T01:45:38;18.30;65.10
70807;DHT22;58882;52.170;5.386;2023-05-10T01:48:28;18.40;65.10
70807;DHT22;58882;52.170;5.386;2023-05-10T01:51:08;18.40;65.10
70807;DHT22;58882;52.170;5.386;2023-05-10T01:54:01;18.40;65.00
70807;DHT22;58882;52.170;5.386;2023-05-10T01:56:43;18.40;65.10
70807;DHT22;58882;52.170;5.386;2023-05-10T01:59:39;18.40;65.10
70807;DHT22;58882;52.170;5.386;2023-05-10T02:02:24;18.40;64.90
70807;DHT22;58882;52.170;5.386;2023-05-10T02:05:13;18.30;64.80
70807;DHT22;58882;52.170;5.386;2023-05-10T02:07:54;18.30;64.90
70807;DHT22;58882;52.170;5.386;2023-05-10T02:10:45;18.30;65.00
70807;DHT22;58882;52.170;5.386;2023-05-10T02:13:27;18.40;65.20
70807;DHT22;58882;52.170;5.386;2023-05-10T02:16:17;18.40;65.20
70807;DHT22;58882;52.170;5.386;2023-05-10T02:18:59;18.30;65.00
70807;DHT22;58882;52.170;5.386;2023-05-10T02:21:49;18.30;65.00
70807;DHT22;58882;52.170;5.386;2023-05-10T02:24:32;18.30;65.00
70807;DHT22;58882;52.170;5.386;2023-05-10T02:27:20;18.30;64.90
70807;DHT22;58882;52.170;5.386;2023-05-10T02:30:02;18.40;64.90
70807;DHT22;58882;52.170;5.386;2023-05-10T02:32:50;18.40;64.90
70807;DHT22;58882;52.170;5.386;2023-05-10T02:35:46;18.30;64.70
70807;DHT22;58882;52.170;5.386;2023-05-10T02:38:21;18.30;64.70
70807;DHT22;58882;52.170;5.386;2023-05-10T02:41:16;18.30;64.70
70807;DHT22;58882;52.170;5.386;2023-05-10T02:43:56;18.30;64.70
70807;DHT22;58882;52.170;5.386;2023-05-10T02:46:52;18.30;64.70
70807;DHT22;58882;52.170;5.386;2023-05-10T02:49:25;18.30;64.60
70807;DHT22;58882;52.170;5.386;2023-05-10T02:52:23;18.30;64.50
70807;DHT22;58882;52.170;5.386;2023-05-10T02:55:05;18.30;64.50
70807;DHT22;58882;52.170;5.386;2023-05-10T02:58:00;18.30;64.40
70807;DHT22;58882;52.170;5.386;2023-05-10T03:00:41;18.30;65.50
70807;DHT22;58882;52.170;5.386;2023-05-10T03:03:28;18.30;64.50
70807;DHT22;58882;52.170;5.386;2023-05-10T03:06:08;18.20;64.30
70807;DHT22;58882;52.170;5.386;2023-05-10T03:08:56;18.20;64.20
70807;DHT22;58882;52.170;5.386;2023-05-10T03:11:43;18.20;64.20
70807;DHT22;58882;52.170;5.386;2023-05-10T03:17:52;18.10;64.20
70807;DHT22;58882;52.170;5.386;2023-05-10T03:20:48;18.10;64.30
70807;DHT22;58882;52.170;5.386;2023-05-10T03:23:58;18.10;64.30
70807;DHT22;58882;52.170;5.386;2023-05-10T03:26:44;18.10;64.30
70807;DHT22;58882;52.170;5.386;2023-05-10T03:29:25;18.10;64.20
70807;DHT22;58882;52.170;5.386;2023-05-10T03:32:13;18.10;64.30
70807;DHT22;58882;52.170;5.386;2023-05-10T03:35:11;18.10;64.10
70807;DHT22;58882;52.170;5.386;2023-05-10T03:37:52;18.00;64.10
70807;DHT22;58882;52.170;5.386;2023-05-10T03:40:39;18.00;64.10
70807;DHT22;58882;52.170;5.386;2023-05-10T03:43:19;18.00;64.10
70807;DHT22;58882;52.170;5.386;2023-05-10T03:46:06;18.00;64.20
70807;DHT22;58882;52.170;5.386;2023-05-10T03:48:46;18.00;64.20
70807;DHT22;58882;52.170;5.386;2023-05-10T03:51:33;18.00;64.20
70807;DHT22;58882;52.170;5.386;2023-05-10T03:54:13;18.00;64.30
70807;DHT22;58882;52.170;5.386;2023-05-10T03:57:00;18.00;64.20
70807;DHT22;58882;52.170;5.386;2023-05-10T03:59:41;18.00;64.20
70807;DHT22;58882;52.170;5.386;2023-05-10T04:02:46;18.00;64.20
70807;DHT22;58882;52.170;5.386;2023-05-10T04:05:19;18.00;64.20
70807;DHT22;58882;52.170;5.386;2023-05-10T04:08:14;18.10;65.10
70807;DHT22;58882;52.170;5.386;2023-05-10T04:10:49;18.00;64.10
70807;DHT22;58882;52.170;5.386;2023-05-10T04:13:42;18.00;64.20
70807;DHT22;58882;52.170;5.386;2023-05-10T04:16:23;18.10;64.20
70807;DHT22;58882;52.170;5.386;2023-05-10T04:19:10;18.10;64.10
70807;DHT22;58882;52.170;5.386;2023-05-10T04:21:50;18.00;64.00
70807;DHT22;58882;52.170;5.386;2023-05-10T04:24:44;18.00;64.10
70807;DHT22;58882;52.170;5.386;2023-05-10T04:27:24;18.00;63.90
70807;DHT22;58882;52.170;5.386;2023-05-10T04:30:18;18.00;64.10
70807;DHT22;58882;52.170;5.386;2023-05-10T04:33:05;18.00;64.20
70807;DHT22;58882;52.170;5.386;2023-05-10T04:35:59;18.00;64.30
70807;DHT22;58882;52.170;5.386;2023-05-10T04:38:39;18.00;64.30
70807;DHT22;58882;52.170;5.386;2023-05-10T04:41:33;18.00;64.30
70807;DHT22;58882;52.170;5.386;2023-05-10T04:44:13;18.00;64.30
70807;DHT22;58882;52.170;5.386;2023-05-10T04:47:00;18.00;64.20
70807;DHT22;58882;52.170;5.386;2023-05-10T04:49:45;18.00;64.20
70807;DHT22;58882;52.170;5.386;2023-05-10T04:52:32;18.00;64.20
70807;DHT22;58882;52.170;5.386;2023-05-10T04:55:12;18.00;64.30
70807;DHT22;58882;52.170;5.386;2023-05-10T04:57:59;18.00;64.30
70807;DHT22;58882;52.170;5.386;2023-05-10T05:00:39;18.00;64.30
70807;DHT22;58882;52.170;5.386;2023-05-10T05:03:32;18.10;64.30
70807;DHT22;58882;52.170;5.386;2023-05-10T05:06:13;18.10;64.20
70807;DHT22;58882;52.170;5.386;2023-05-10T05:09:08;18.10;64.10
70807;DHT22;58882;52.170;5.386;2023-05-10T05:11:50;18.10;64.20
70807;DHT22;58882;52.170;5.386;2023-05-10T05:14:37;18.10;64.10
70807;DHT22;58882;52.170;5.386;2023-05-10T05:17:17;18.10;64.10
70807;DHT22;58882;52.170;5.386;2023-05-10T05:20:04;18.10;64.20
70807;DHT22;58882;52.170;5.386;2023-05-10T05:22:45;18.10;64.00
70807;DHT22;58882;52.170;5.386;2023-05-10T05:25:32;18.10;64.00
70807;DHT22;58882;52.170;5.386;2023-05-10T05:28:12;18.10;64.00
70807;DHT22;58882;52.170;5.386;2023-05-10T05:30:59;18.10;64.10
70807;DHT22;58882;52.170;5.386;2023-05-10T05:33:45;18.10;64.10
70807;DHT22;58882;52.170;5.386;2023-05-10T05:36:26;18.20;64.00
70807;DHT22;58882;52.170;5.386;2023-05-10T05:39:15;18.10;63.80
70807;DHT22;58882;52.170;5.386;2023-05-10T05:41:55;18.10;63.80
70807;DHT22;58882;52.170;5.386;2023-05-10T05:44:49;18.10;63.80
70807;DHT22;58882;52.170;5.386;2023-05-10T05:47:29;18.10;63.80
70807;DHT22;58882;52.170;5.386;2023-05-10T05:50:16;18.10;63.90
70807;DHT22;58882;52.170;5.386;2023-05-10T05:52:56;18.00;63.90
70807;DHT22;58882;52.170;5.386;2023-05-10T05:55:53;18.00;63.90
70807;DHT22;58882;52.170;5.386;2023-05-10T05:58:34;18.00;64.70
70807;DHT22;58882;52.170;5.386;2023-05-10T06:01:28;18.00;64.00
70807;DHT22;58882;52.170;5.386;2023-05-10T06:04:08;17.90;63.70
70807;DHT22;58882;52.170;5.386;2023-05-10T06:06:55;18.00;63.90
70807;DHT22;58882;52.170;5.386;2023-05-10T06:09:35;18.00;63.80
70807;DHT22;58882;52.170;5.386;2023-05-10T06:12:22;18.00;63.80
70807;DHT22;58882;52.170;5.386;2023-05-10T06:15:02;18.00;63.60
70807;DHT22;58882;52.170;5.386;2023-05-10T06:17:50;18.00;63.50
70807;DHT22;58882;52.170;5.386;2023-05-10T06:20:23;18.00;63.40
70807;DHT22;58882;52.170;5.386;2023-05-10T06:23:18;17.90;63.60
70807;DHT22;58882;52.170;5.386;2023-05-10T06:25:58;17.90;63.80
70807;DHT22;58882;52.170;5.386;2023-05-10T06:28:45;17.80;63.90
70807;DHT22;58882;52.170;5.386;2023-05-10T06:31:25;17.80;63.90
70807;DHT22;58882;52.170;5.386;2023-05-10T06:34:18;17.80;63.90
70807;DHT22;58882;52.170;5.386;2023-05-10T06:36:59;17.80;63.90
70807;DHT22;58882;52.170;5.386;2023-05-10T06:39:46;17.70;64.00
70807;DHT22;58882;52.170;5.386;2023-05-10T06:42:26;17.80;64.00
70807;DHT22;58882;52.170;5.386;2023-05-10T06:45:13;17.80;63.90
70807;DHT22;58882;52.170;5.386;2023-05-10T06:48:08;17.90;63.70
70807;DHT22;58882;52.170;5.386;2023-05-10T06:50:41;17.90;63.60
70807;DHT22;58882;52.170;5.386;2023-05-10T06:53:34;18.00;63.10
70807;DHT22;58882;52.170;5.386;2023-05-10T06:56:15;18.00;63.10
70807;DHT22;58882;52.170;5.386;2023-05-10T06:59:02;18.10;63.20
70807;DHT22;58882;52.170;5.386;2023-05-10T07:01:43;18.10;63.10
70807;DHT22;58882;52.170;5.386;2023-05-10T07:04:37;18.10;62.90
70807;DHT22;58882;52.170;5.386;2023-05-10T07:07:17;18.10;62.60
70807;DHT22;58882;52.170;5.386;2023-05-10T07:10:04;18.20;62.70
70807;DHT22;58882;52.170;5.386;2023-05-10T07:12:38;18.20;62.40
70807;DHT22;58882;52.170;5.386;2023-05-10T07:15:32;18.20;62.50
70807;DHT22;58882;52.170;5.386;2023-05-10T07:18:20;18.20;62.50
70807;DHT22;58882;52.170;5.386;2023-05-10T07:21:00;18.10;62.30
70807;DHT22;58882;52.170;5.386;2023-05-10T07:23:47;18.20;62.40
70807;DHT22;58882;52.170;5.386;2023-05-10T07:26:27;18.20;62.50
70807;DHT22;58882;52.170;5.386;2023-05-10T07:29:14;18.30;62.20
70807;DHT22;58882;52.170;5.386;2023-05-10T07:31:47;18.30;62.10
70807;DHT22;58882;52.170;5.386;2023-05-10T07:34:41;18.30;62.00
70807;DHT22;58882;52.170;5.386;2023-05-10T07:37:21;18.30;61.90
70807;DHT22;58882;52.170;5.386;2023-05-10T07:40:08;18.30;61.70
70807;DHT22;58882;52.170;5.386;2023-05-10T07:42:49;18.30;61.80
70807;DHT22;58882;52.170;5.386;2023-05-10T07:45:36;18.30;61.80
70807;DHT22;58882;52.170;5.386;2023-05-10T07:48:16;18.30;61.80
70807;DHT22;58882;52.170;5.386;2023-05-10T07:51:03;18.40;61.50
70807;DHT22;58882;52.170;5.386;2023-05-10T07:53:43;18.30;61.40
70807;DHT22;58882;52.170;5.386;2023-05-10T07:56:31;18.30;61.50
70807;DHT22;58882;52.170;5.386;2023-05-10T07:59:15;18.40;62.60
70807;DHT22;58882;52.170;5.386;2023-05-10T08:02:03;18.40;61.40
70807;DHT22;58882;52.170;5.386;2023-05-10T08:04:43;18.50;61.30
70807;DHT22;58882;52.170;5.386;2023-05-10T08:07:30;18.50;61.30
70807;DHT22;58882;52.170;5.386;2023-05-10T08:10:10;18.50;61.60
70807;DHT22;58882;52.170;5.386;2023-05-10T08:12:57;18.50;61.50
70807;DHT22;58882;52.170;5.386;2023-05-10T08:15:38;18.50;61.50
70807;DHT22;58882;52.170;5.386;2023-05-10T08:18:32;18.60;61.50
70807;DHT22;58882;52.170;5.386;2023-05-10T08:21:05;18.60;61.10
70807;DHT22;58882;52.170;5.386;2023-05-10T08:23:59;18.60;60.90
70807;DHT22;58882;52.170;5.386;2023-05-10T08:26:39;18.60;60.70
70807;DHT22;58882;52.170;5.386;2023-05-10T08:29:33;18.50;60.70
70807;DHT22;58882;52.170;5.386;2023-05-10T08:32:22;18.50;61.10
70807;DHT22;58882;52.170;5.386;2023-05-10T08:35:16;18.50;61.10
70807;DHT22;58882;52.170;5.386;2023-05-10T08:38:10;18.50;61.10
70807;DHT22;58882;52.170;5.386;2023-05-10T08:40:52;18.50;61.30
70807;DHT22;58882;52.170;5.386;2023-05-10T08:43:41;18.50;60.90
70807;DHT22;58882;52.170;5.386;2023-05-10T08:46:27;18.60;60.80
70807;DHT22;58882;52.170;5.386;2023-05-10T08:49:22;18.50;60.70
70807;DHT22;58882;52.170;5.386;2023-05-10T08:52:04;18.50;61.00
70807;DHT22;58882;52.170;5.386;2023-05-10T08:54:52;18.50;61.20
70807;DHT22;58882;52.170;5.386;2023-05-10T08:57:33;18.60;61.30
70807;DHT22;58882;52.170;5.386;2023-05-10T09:00:20;18.70;60.70
70807;DHT22;58882;52.170;5.386;2023-05-10T09:03:04;18.70;60.50
70807;DHT22;58882;52.170;5.386;2023-05-10T09:05:52;18.70;60.40
70807;DHT22;58882;52.170;5.386;2023-05-10T09:08:32;18.80;60.20
70807;DHT22;58882;52.170;5.386;2023-05-10T09:11:20;18.80;60.10
70807;DHT22;58882;52.170;5.386;2023-05-10T09:14:01;18.90;60.40
70807;DHT22;58882;52.170;5.386;2023-05-10T09:16:49;19.00;59.60
70807;DHT22;58882;52.170;5.386;2023-05-10T09:19:29;19.00;60.10
70807;DHT22;58882;52.170;5.386;2023-05-10T09:22:16;19.10;60.30
70807;DHT22;58882;52.170;5.386;2023-05-10T09:25:11;19.20;60.20
70807;DHT22;58882;52.170;5.386;2023-05-10T09:27:58;19.30;59.80
70807;DHT22;58882;52.170;5.386;2023-05-10T09:30:38;19.40;59.20
70807;DHT22;58882;52.170;5.386;2023-05-10T09:33:44;19.60;59.00
70807;DHT22;58882;52.170;5.386;2023-05-10T09:36:50;19.70;58.70
70807;DHT22;58882;52.170;5.386;2023-05-10T09:39:35;19.90;58.50
70807;DHT22;58882;52.170;5.386;2023-05-10T09:42:23;20.10;57.70
70807;DHT22;58882;52.170;5.386;2023-05-10T09:45:09;20.20;57.00
70807;DHT22;58882;52.170;5.386;2023-05-10T09:48:03;20.30;56.70
70807;DHT22;58882;52.170;5.386;2023-05-10T09:50:43;20.40;56.40
70807;DHT22;58882;52.170;5.386;2023-05-10T09:53:30;20.40;56.00
70807;DHT22;58882;52.170;5.386;2023-05-10T09:56:10;20.30;55.80
70807;DHT22;58882;52.170;5.386;2023-05-10T09:59:04;20.30;55.70
70807;DHT22;58882;52.170;5.386;2023-05-10T10:01:50;20.20;55.80
70807;DHT22;58882;52.170;5.386;2023-05-10T10:04:41;20.20;56.00
70807;DHT22;58882;52.170;5.386;2023-05-10T10:07:24;20.20;56.00
70807;DHT22;58882;52.170;5.386;2023-05-10T10:10:11;20.20;55.60
70807;DHT22;58882;52.170;5.386;2023-05-10T10:12:52;20.10;55.80
70807;DHT22;58882;52.170;5.386;2023-05-10T10:15:40;20.10;56.10
70807;DHT22;58882;52.170;5.386;2023-05-10T10:18:22;20.10;56.10
70807;DHT22;58882;52.170;5.386;2023-05-10T10:21:09;20.20;56.30
70807;DHT22;58882;52.170;5.386;2023-05-10T10:23:50;20.20;56.60
70807;DHT22;58882;52.170;5.386;2023-05-10T10:26:45;20.30;56.50
70807;DHT22;58882;52.170;5.386;2023-05-10T10:29:33;20.30;56.40
70807;DHT22;58882;52.170;5.386;2023-05-10T10:35:03;20.40;56.10
70807;DHT22;58882;52.170;5.386;2023-05-10T10:37:58;20.40;56.00
70807;DHT22;58882;52.170;5.386;2023-05-10T10:40:38;20.40;55.70
70807;DHT22;58882;52.170;5.386;2023-05-10T10:43:32;20.40;55.70
70807;DHT22;58882;52.170;5.386;2023-05-10T10:46:16;20.40;55.60
70807;DHT22;58882;52.170;5.386;2023-05-10T10:49:10;20.30;55.70
70807;DHT22;58882;52.170;5.386;2023-05-10T10:52:15;20.30;55.90
70807;DHT22;58882;52.170;5.386;2023-05-10T10:55:20;20.40;56.10
70807;DHT22;58882;52.170;5.386;2023-05-10T10:58:07;20.40;55.60
70807;DHT22;58882;52.170;5.386;2023-05-10T11:01:18;20.50;55.30
70807;DHT22;58882;52.170;5.386;2023-05-10T11:07:20;20.50;55.20
70807;DHT22;58882;52.170;5.386;2023-05-10T11:10:04;20.50;55.20
70807;DHT22;58882;52.170;5.386;2023-05-10T11:13:07;20.60;55.30
70807;DHT22;58882;52.170;5.386;2023-05-10T11:15:48;20.60;55.10
70807;DHT22;58882;52.170;5.386;2023-05-10T11:18:37;20.60;55.00
70807;DHT22;58882;52.170;5.386;2023-05-10T11:21:18;20.60;54.80
70807;DHT22;58882;52.170;5.386;2023-05-10T11:24:17;20.60;54.80
70807;DHT22;58882;52.170;5.386;2023-05-10T11:26:57;20.50;55.10
70807;DHT22;58882;52.170;5.386;2023-05-10T11:29:44;20.50;55.10
70807;DHT22;58882;52.170;5.386;2023-05-10T11:32:24;20.40;55.40
70807;DHT22;58882;52.170;5.386;2023-05-10T11:35:11;20.40;55.60
70807;DHT22;58882;52.170;5.386;2023-05-10T11:37:48;20.50;55.80
70807;DHT22;58882;52.170;5.386;2023-05-10T11:40:42;20.60;55.80
70807;DHT22;58882;52.170;5.386;2023-05-10T11:43:24;20.70;55.60
70807;DHT22;58882;52.170;5.386;2023-05-10T11:46:13;20.90;55.30
70807;DHT22;58882;52.170;5.386;2023-05-10T11:49:03;21.00;54.40
70807;DHT22;58882;52.170;5.386;2023-05-10T11:51:50;21.20;54.20
70807;DHT22;58882;52.170;5.386;2023-05-10T11:54:30;21.20;54.30
70807;DHT22;58882;52.170;5.386;2023-05-10T11:57:18;21.20;53.90
70807;DHT22;58882;52.170;5.386;2023-05-10T12:00:00;21.20;53.70
70807;DHT22;58882;52.170;5.386;2023-05-10T12:02:54;21.20;53.50
70807;DHT22;58882;52.170;5.386;2023-05-10T12:05:34;21.20;53.50
70807;DHT22;58882;52.170;5.386;2023-05-10T12:08:26;21.10;53.70
70807;DHT22;58882;52.170;5.386;2023-05-10T12:11:08;21.00;54.00
70807;DHT22;58882;52.170;5.386;2023-05-10T12:13:56;21.00;54.00
70807;DHT22;58882;52.170;5.386;2023-05-10T12:16:36;20.90;54.00
70807;DHT22;58882;52.170;5.386;2023-05-10T12:19:23;21.00;54.00
70807;DHT22;58882;52.170;5.386;2023-05-10T12:22:05;20.90;53.70
70807;DHT22;58882;52.170;5.386;2023-05-10T12:24:52;20.90;54.50
70807;DHT22;58882;52.170;5.386;2023-05-10T12:27:32;20.90;53.90
70807;DHT22;58882;52.170;5.386;2023-05-10T12:30:24;21.00;53.90
70807;DHT22;58882;52.170;5.386;2023-05-10T12:33:09;21.10;53.90
70807;DHT22;58882;52.170;5.386;2023-05-10T12:35:59;21.20;53.70
70807;DHT22;58882;52.170;5.386;2023-05-10T12:38:43;21.30;53.60
70807;DHT22;58882;52.170;5.386;2023-05-10T12:41:38;21.50;54.60
70807;DHT22;58882;52.170;5.386;2023-05-10T12:44:18;21.50;56.00
70807;DHT22;58882;52.170;5.386;2023-05-10T12:47:05;21.60;57.00
70807;DHT22;58882;52.170;5.386;2023-05-10T12:49:46;21.60;55.70
70807;DHT22;58882;52.170;5.386;2023-05-10T12:52:40;21.70;56.50
70807;DHT22;58882;52.170;5.386;2023-05-10T12:55:13;21.70;55.60
70807;DHT22;58882;52.170;5.386;2023-05-10T12:58:07;21.70;55.90
70807;DHT22;58882;52.170;5.386;2023-05-10T13:00:40;21.70;55.20
70807;DHT22;58882;52.170;5.386;2023-05-10T13:03:34;21.70;54.60
70807;DHT22;58882;52.170;5.386;2023-05-10T13:06:14;21.70;55.80
70807;DHT22;58882;52.170;5.386;2023-05-10T13:09:01;21.70;55.30
70807;DHT22;58882;52.170;5.386;2023-05-10T13:11:41;21.70;55.10
70807;DHT22;58882;52.170;5.386;2023-05-10T13:14:28;21.70;54.70
70807;DHT22;58882;52.170;5.386;2023-05-10T13:17:09;21.70;53.70
70807;DHT22;58882;52.170;5.386;2023-05-10T13:19:56;21.70;53.40
70807;DHT22;58882;52.170;5.386;2023-05-10T13:22:36;21.70;53.10
70807;DHT22;58882;52.170;5.386;2023-05-10T13:25:23;21.60;53.20
70807;DHT22;58882;52.170;5.386;2023-05-10T13:28:03;21.60;53.10
70807;DHT22;58882;52.170;5.386;2023-05-10T13:30:50;21.50;53.10
70807;DHT22;58882;52.170;5.386;2023-05-10T13:33:30;21.50;53.10
70807;DHT22;58882;52.170;5.386;2023-05-10T13:36:17;21.40;53.40
70807;DHT22;58882;52.170;5.386;2023-05-10T13:38:57;21.40;53.50
70807;DHT22;58882;52.170;5.386;2023-05-10T13:41:52;21.30;53.60
70807;DHT22;58882;52.170;5.386;2023-05-10T13:44:27;21.20;53.80
70807;DHT22;58882;52.170;5.386;2023-05-10T13:47:21;21.20;53.90
70807;DHT22;58882;52.170;5.386;2023-05-10T13:49:55;21.10;53.90
70807;DHT22;58882;52.170;5.386;2023-05-10T13:52:50;21.10;54.00
70807;DHT22;58882;52.170;5.386;2023-05-10T13:55:23;21.00;54.20
70807;DHT22;58882;52.170;5.386;2023-05-10T13:58:17;21.00;54.20
70807;DHT22;58882;52.170;5.386;2023-05-10T14:00:50;21.00;54.20
70807;DHT22;58882;52.170;5.386;2023-05-10T14:03:44;20.90;54.40
70807;DHT22;58882;52.170;5.386;2023-05-10T14:06:24;20.90;54.40
70807;DHT22;58882;52.170;5.386;2023-05-10T14:09:11;20.80;54.50
70807;DHT22;58882;52.170;5.386;2023-05-10T14:11:51;20.80;54.60
70807;DHT22;58882;52.170;5.386;2023-05-10T14:14:39;20.70;55.00
70807;DHT22;58882;52.170;5.386;2023-05-10T14:17:19;20.70;55.30
70807;DHT22;58882;52.170;5.386;2023-05-10T14:20:06;20.70;55.30
70807;DHT22;58882;52.170;5.386;2023-05-10T14:22:47;20.60;55.30
70807;DHT22;58882;52.170;5.386;2023-05-10T14:25:34;20.60;55.40
70807;DHT22;58882;52.170;5.386;2023-05-10T14:28:14;20.50;55.70
70807;DHT22;58882;52.170;5.386;2023-05-10T14:31:03;20.50;55.90
70807;DHT22;58882;52.170;5.386;2023-05-10T14:33:50;20.50;56.10
70807;DHT22;58882;52.170;5.386;2023-05-10T14:36:31;20.40;56.50
70807;DHT22;58882;52.170;5.386;2023-05-10T14:39:18;20.40;56.50
70807;DHT22;58882;52.170;5.386;2023-05-10T14:41:51;20.40;56.70
70807;DHT22;58882;52.170;5.386;2023-05-10T14:44:45;20.40;56.90
70807;DHT22;58882;52.170;5.386;2023-05-10T14:47:25;20.30;57.00
70807;DHT22;58882;52.170;5.386;2023-05-10T14:50:12;20.30;57.10
70807;DHT22;58882;52.170;5.386;2023-05-10T14:53:09;20.30;57.30
70807;DHT22;58882;52.170;5.386;2023-05-10T14:56:03;20.30;57.60
70807;DHT22;58882;52.170;5.386;2023-05-10T14:58:36;20.30;57.70
70807;DHT22;58882;52.170;5.386;2023-05-10T15:01:30;20.30;57.70
70807;DHT22;58882;52.170;5.386;2023-05-10T15:04:11;20.20;57.90
70807;DHT22;58882;52.170;5.386;2023-05-10T15:07:00;20.20;59.20
70807;DHT22;58882;52.170;5.386;2023-05-10T15:09:40;20.20;58.10
70807;DHT22;58882;52.170;5.386;2023-05-10T15:12:27;20.20;58.20
70807;DHT22;58882;52.170;5.386;2023-05-10T15:15:07;20.20;58.20
70807;DHT22;58882;52.170;5.386;2023-05-10T15:17:55;20.20;58.30
70807;DHT22;58882;52.170;5.386;2023-05-10T15:20:35;20.30;58.60
70807;DHT22;58882;52.170;5.386;2023-05-10T15:23:22;20.30;58.50
70807;DHT22;58882;52.170;5.386;2023-05-10T15:26:02;20.20;58.50
70807;DHT22;58882;52.170;5.386;2023-05-10T15:28:49;20.30;58.60
70807;DHT22;58882;52.170;5.386;2023-05-10T15:31:29;20.20;58.80
70807;DHT22;58882;52.170;5.386;2023-05-10T15:34:16;20.30;58.90
70807;DHT22;58882;52.170;5.386;2023-05-10T15:37:14;20.30;59.00
70807;DHT22;58882;52.170;5.386;2023-05-10T15:39:56;20.30;58.60
70807;DHT22;58882;52.170;5.386;2023-05-10T15:42:50;20.30;58.70
70807;DHT22;58882;52.170;5.386;2023-05-10T15:45:30;20.30;58.90
70807;DHT22;58882;52.170;5.386;2023-05-10T15:48:17;20.30;58.90
70807;DHT22;58882;52.170;5.386;2023-05-10T15:50:57;20.30;59.30
70807;DHT22;58882;52.170;5.386;2023-05-10T15:53:44;20.30;59.20
70807;DHT22;58882;52.170;5.386;2023-05-10T15:56:39;20.40;58.90
70807;DHT22;58882;52.170;5.386;2023-05-10T15:59:26;20.40;58.70
70807;DHT22;58882;52.170;5.386;2023-05-10T16:02:06;20.40;58.80
70807;DHT22;58882;52.170;5.386;2023-05-10T16:04:55;20.40;58.40
70807;DHT22;58882;52.170;5.386;2023-05-10T16:07:35;20.40;58.30
70807;DHT22;58882;52.170;5.386;2023-05-10T16:10:22;20.40;58.60
70807;DHT22;58882;52.170;5.386;2023-05-10T16:13:02;20.40;58.50
70807;DHT22;58882;52.170;5.386;2023-05-10T16:15:49;20.50;58.50
70807;DHT22;58882;52.170;5.386;2023-05-10T16:18:29;20.50;58.30
70807;DHT22;58882;52.170;5.386;2023-05-10T16:21:16;20.50;58.30
70807;DHT22;58882;52.170;5.386;2023-05-10T16:23:56;20.50;58.30
70807;DHT22;58882;52.170;5.386;2023-05-10T16:26:50;20.50;58.40
70807;DHT22;58882;52.170;5.386;2023-05-10T16:29:30;20.40;58.30
70807;DHT22;58882;52.170;5.386;2023-05-10T16:32:25;20.40;58.50
70807;DHT22;58882;52.170;5.386;2023-05-10T16:35:12;20.50;58.40
70807;DHT22;58882;52.170;5.386;2023-05-10T16:37:52;20.50;58.50
70807;DHT22;58882;52.170;5.386;2023-05-10T16:40:39;20.50;58.60
70807;DHT22;58882;52.170;5.386;2023-05-10T16:43:19;20.50;58.40
70807;DHT22;58882;52.170;5.386;2023-05-10T16:46:10;20.50;58.60
70807;DHT22;58882;52.170;5.386;2023-05-10T16:48:50;20.50;58.70
70807;DHT22;58882;52.170;5.386;2023-05-10T16:51:37;20.40;58.70
70807;DHT22;58882;52.170;5.386;2023-05-10T16:54:10;20.40;58.80
70807;DHT22;58882;52.170;5.386;2023-05-10T16:57:04;20.40;58.70
70807;DHT22;58882;52.170;5.386;2023-05-10T16:59:37;20.40;58.80
70807;DHT22;58882;52.170;5.386;2023-05-10T17:02:31;20.40;59.20
70807;DHT22;58882;52.170;5.386;2023-05-10T17:05:04;20.40;59.10
70807;DHT22;58882;52.170;5.386;2023-05-10T17:07:58;20.40;58.80
70807;DHT22;58882;52.170;5.386;2023-05-10T17:10:41;20.40;58.80
70807;DHT22;58882;52.170;5.386;2023-05-10T17:13:28;20.40;58.80
70807;DHT22;58882;52.170;5.386;2023-05-10T17:16:09;20.50;58.50
70807;DHT22;58882;52.170;5.386;2023-05-10T17:18:56;20.50;58.30
70807;DHT22;58882;52.170;5.386;2023-05-10T17:21:36;20.50;58.30
70807;DHT22;58882;52.170;5.386;2023-05-10T17:24:23;20.50;58.50
70807;DHT22;58882;52.170;5.386;2023-05-10T17:27:17;20.50;58.50
70807;DHT22;58882;52.170;5.386;2023-05-10T17:29:57;20.50;58.60
70807;DHT22;58882;52.170;5.386;2023-05-10T17:32:51;20.50;58.30
70807;DHT22;58882;52.170;5.386;2023-05-10T17:35:38;20.50;58.30
70807;DHT22;58882;52.170;5.386;2023-05-10T17:38:18;20.40;58.10
70807;DHT22;58882;52.170;5.386;2023-05-10T17:41:13;20.50;58.30
70807;DHT22;58882;52.170;5.386;2023-05-10T17:43:46;20.40;58.20
70807;DHT22;58882;52.170;5.386;2023-05-10T17:46:40;20.40;58.30